sensor_id;sensor_type;location;lat;lon;timestamp;P1;durP1;ratioP1;P2;durP2;ratioP2
3543;SDS011;1786;52.870;9.578;2023-04-06T00:01:18;2.63;;;2.43;;
3543;SDS011;1786;52.870;9.578;2023-04-06T00:03:45;3.30;;;3.00;;
3543;SDS011;1786;52.870;9.578;2023-04-06T00:06:11;2.70;;;2.60;;
3543;SDS011;1786;52.870;9.578;2023-04-06T00:08:38;3.13;;;2.93;;
3543;SDS011;1786;52.870;9.578;2023-04-06T00:11:05;3.50;;;3.20;;
3543;SDS011;1786;52.870;9.578;2023-04-06T00:13:32;8.40;;;2.97;;
3543;SDS011;1786;52.870;9.578;2023-04-06T00:15:58;3.50;;;3.20;;
3543;SDS011;1786;52.870;9.578;2023-04-06T00:18:25;3.50;;;3.30;;
3543;SDS011;1786;52.870;9.578;2023-04-06T00:20:53;4.33;;;3.57;;
3543;SDS011;1786;52.870;9.578;2023-04-06T00:23:19;11.03;;;4.07;;
3543;SDS011;1786;52.870;9.578;2023-04-06T00:25:45;3.40;;;2.67;;
3543;SDS011;1786;52.870;9.578;2023-04-06T00:28:12;3.93;;;3.50;;
3543;SDS011;1786;52.870;9.578;2023-04-06T00:30:39;4.87;;;4.37;;
3543;SDS011;1786;52.870;9.578;2023-04-06T00:33:06;4.17;;;3.40;;
3543;SDS011;1786;52.870;9.578;2023-04-06T00:35:33;3.60;;;3.30;;
3543;SDS011;1786;52.870;9.578;2023-04-06T00:38:00;3.70;;;3.40;;
3543;SDS011;1786;52.870;9.578;2023-04-06T00:40:26;6.50;;;3.90;;
3543;SDS011;1786;52.870;9.578;2023-04-06T00:42:54;3.67;;;3.33;;
3543;SDS011;1786;52.870;9.578;2023-04-06T00:45:21;6.43;;;3.67;;
3543;SDS011;1786;52.870;9.578;2023-04-06T00:47:48;4.00;;;3.70;;
3543;SDS011;1786;52.870;9.578;2023-04-06T00:50:14;5.17;;;4.23;;
3543;SDS011;1786;52.870;9.578;2023-04-06T00:52:41;4.33;;;3.93;;
3543;SDS011;1786;52.870;9.578;2023-04-06T00:55:08;4.67;;;4.27;;
3543;SDS011;1786;52.870;9.578;2023-04-06T00:57:39;4.27;;;3.87;;
3543;SDS011;1786;52.870;9.578;2023-04-06T01:00:06;5.93;;;4.73;;
3543;SDS011;1786;52.870;9.578;2023-04-06T01:02:34;3.90;;;3.60;;
3543;SDS011;1786;52.870;9.578;2023-04-06T01:05:01;4.63;;;4.07;;
3543;SDS011;1786;52.870;9.578;2023-04-06T01:07:39;4.97;;;4.17;;
3543;SDS011;1786;52.870;9.578;2023-04-06T01:10:10;5.20;;;4.27;;
3543;SDS011;1786;52.870;9.578;2023-04-06T01:12:37;5.20;;;4.70;;
3543;SDS011;1786;52.870;9.578;2023-04-06T01:15:11;5.23;;;4.70;;
3543;SDS011;1786;52.870;9.578;2023-04-06T01:17:41;7.00;;;4.20;;
3543;SDS011;1786;52.870;9.578;2023-04-06T01:20:12;7.20;;;4.93;;
3543;SDS011;1786;52.870;9.578;2023-04-06T01:22:39;5.50;;;4.97;;
3543;SDS011;1786;52.870;9.578;2023-04-06T01:25:06;5.73;;;4.07;;
3543;SDS011;1786;52.870;9.578;2023-04-06T01:27:40;4.27;;;4.00;;
3543;SDS011;1786;52.870;9.578;2023-04-06T01:30:19;4.63;;;4.27;;
3543;SDS011;1786;52.870;9.578;2023-04-06T01:32:50;6.73;;;4.23;;
3543;SDS011;1786;52.870;9.578;2023-04-06T01:35:27;4.83;;;4.27;;
3543;SDS011;1786;52.870;9.578;2023-04-06T01:38:04;4.30;;;3.90;;
3543;SDS011;1786;52.870;9.578;2023-04-06T01:40:34;6.57;;;4.10;;
3543;SDS011;1786;52.870;9.578;2023-04-06T01:43:01;6.10;;;4.23;;
3543;SDS011;1786;52.870;9.578;2023-04-06T01:45:48;4.03;;;3.63;;
3543;SDS011;1786;52.870;9.578;2023-04-06T01:48:19;4.77;;;3.30;;
3543;SDS011;1786;52.870;9.578;2023-04-06T01:50:46;5.40;;;4.90;;
3543;SDS011;1786;52.870;9.578;2023-04-06T01:53:18;4.53;;;4.13;;
3543;SDS011;1786;52.870;9.578;2023-04-06T01:55:46;8.47;;;4.93;;
3543;SDS011;1786;52.870;9.578;2023-04-06T01:58:18;4.90;;;4.50;;
3543;SDS011;1786;52.870;9.578;2023-04-06T02:00:45;5.07;;;4.57;;
3543;SDS011;1786;52.870;9.578;2023-04-06T02:03:12;9.30;;;4.60;;
3543;SDS011;1786;52.870;9.578;2023-04-06T02:05:38;8.40;;;4.23;;
3543;SDS011;1786;52.870;9.578;2023-04-06T02:08:16;4.87;;;4.37;;
3543;SDS011;1786;52.870;9.578;2023-04-06T02:10:45;4.60;;;4.20;;
3543;SDS011;1786;52.870;9.578;2023-04-06T02:13:21;5.17;;;4.17;;
3543;SDS011;1786;52.870;9.578;2023-04-06T02:15:51;4.80;;;3.97;;
3543;SDS011;1786;52.870;9.578;2023-04-06T02:18:19;4.10;;;3.80;;
3543;SDS011;1786;52.870;9.578;2023-04-06T02:20:45;5.90;;;3.77;;
3543;SDS011;1786;52.870;9.578;2023-04-06T02:23:12;4.60;;;4.17;;
3543;SDS011;1786;52.870;9.578;2023-04-06T02:25:39;4.87;;;4.10;;
3543;SDS011;1786;52.870;9.578;2023-04-06T02:28:05;4.50;;;4.10;;
3543;SDS011;1786;52.870;9.578;2023-04-06T02:30:32;4.37;;;3.97;;
3543;SDS011;1786;52.870;9.578;2023-04-06T02:32:59;7.07;;;3.77;;
3543;SDS011;1786;52.870;9.578;2023-04-06T02:35:28;4.50;;;4.20;;
3543;SDS011;1786;52.870;9.578;2023-04-06T02:37:56;5.63;;;4.67;;
3543;SDS011;1786;52.870;9.578;2023-04-06T02:40:23;5.20;;;4.70;;
3543;SDS011;1786;52.870;9.578;2023-04-06T02:42:49;5.10;;;4.60;;
3543;SDS011;1786;52.870;9.578;2023-04-06T02:45:20;7.37;;;5.30;;
3543;SDS011;1786;52.870;9.578;2023-04-06T02:47:47;4.77;;;4.30;;
3543;SDS011;1786;52.870;9.578;2023-04-06T02:50:15;7.23;;;4.87;;
3543;SDS011;1786;52.870;9.578;2023-04-06T02:52:52;5.43;;;4.93;;
3543;SDS011;1786;52.870;9.578;2023-04-06T02:55:18;4.90;;;4.50;;
3543;SDS011;1786;52.870;9.578;2023-04-06T02:57:48;3.83;;;3.53;;
3543;SDS011;1786;52.870;9.578;2023-04-06T03:00:18;5.13;;;4.00;;
3543;SDS011;1786;52.870;9.578;2023-04-06T03:02:44;5.30;;;4.80;;
3543;SDS011;1786;52.870;9.578;2023-04-06T03:05:14;4.40;;;4.10;;
3543;SDS011;1786;52.870;9.578;2023-04-06T03:07:43;6.93;;;5.37;;
3543;SDS011;1786;52.870;9.578;2023-04-06T03:10:17;13.00;;;5.13;;
3543;SDS011;1786;52.870;9.578;2023-04-06T03:12:45;5.77;;;5.17;;
3543;SDS011;1786;52.870;9.578;2023-04-06T03:15:18;6.23;;;4.63;;
3543;SDS011;1786;52.870;9.578;2023-04-06T03:17:50;5.27;;;4.87;;
3543;SDS011;1786;52.870;9.578;2023-04-06T03:20:30;5.30;;;4.90;;
3543;SDS011;1786;52.870;9.578;2023-04-06T03:22:57;8.90;;;4.93;;
3543;SDS011;1786;52.870;9.578;2023-04-06T03:25:28;6.13;;;5.23;;
3543;SDS011;1786;52.870;9.578;2023-04-06T03:28:00;6.17;;;5.70;;
3543;SDS011;1786;52.870;9.578;2023-04-06T03:30:26;5.80;;;5.30;;
3543;SDS011;1786;52.870;9.578;2023-04-06T03:32:53;13.27;;;4.97;;
3543;SDS011;1786;52.870;9.578;2023-04-06T03:35:21;8.90;;;5.53;;
3543;SDS011;1786;52.870;9.578;2023-04-06T03:37:49;5.50;;;5.10;;
3543;SDS011;1786;52.870;9.578;2023-04-06T03:40:16;4.77;;;4.57;;
3543;SDS011;1786;52.870;9.578;2023-04-06T03:42:42;7.17;;;4.93;;
3543;SDS011;1786;52.870;9.578;2023-04-06T03:45:12;5.53;;;4.87;;
3543;SDS011;1786;52.870;9.578;2023-04-06T03:47:45;6.87;;;4.87;;
3543;SDS011;1786;52.870;9.578;2023-04-06T03:50:12;5.90;;;5.33;;
3543;SDS011;1786;52.870;9.578;2023-04-06T03:52:39;5.10;;;4.60;;
3543;SDS011;1786;52.870;9.578;2023-04-06T03:55:06;8.43;;;5.07;;
3543;SDS011;1786;52.870;9.578;2023-04-06T03:57:35;6.40;;;5.03;;
3543;SDS011;1786;52.870;9.578;2023-04-06T04:00:01;5.10;;;4.70;;
3543;SDS011;1786;52.870;9.578;2023-04-06T04:02:38;5.17;;;4.70;;
3543;SDS011;1786;52.870;9.578;2023-04-06T04:05:04;5.10;;;4.70;;
3543;SDS011;1786;52.870;9.578;2023-04-06T04:07:31;5.70;;;4.40;;
3543;SDS011;1786;52.870;9.578;2023-04-06T04:09:59;5.80;;;5.13;;
3543;SDS011;1786;52.870;9.578;2023-04-06T04:12:26;4.70;;;4.30;;
3543;SDS011;1786;52.870;9.578;2023-04-06T04:14:52;5.83;;;4.70;;
3543;SDS011;1786;52.870;9.578;2023-04-06T04:17:19;6.53;;;5.10;;
3543;SDS011;1786;52.870;9.578;2023-04-06T04:19:45;10.30;;;4.70;;
3543;SDS011;1786;52.870;9.578;2023-04-06T04:22:13;5.00;;;4.57;;
3543;SDS011;1786;52.870;9.578;2023-04-06T04:24:41;6.80;;;5.20;;
3543;SDS011;1786;52.870;9.578;2023-04-06T04:27:08;4.93;;;4.53;;
3543;SDS011;1786;52.870;9.578;2023-04-06T04:29:35;6.33;;;5.57;;
3543;SDS011;1786;52.870;9.578;2023-04-06T04:32:06;7.07;;;5.30;;
3543;SDS011;1786;52.870;9.578;2023-04-06T04:34:33;6.00;;;5.40;;
3543;SDS011;1786;52.870;9.578;2023-04-06T04:37:01;4.67;;;4.27;;
3543;SDS011;1786;52.870;9.578;2023-04-06T04:39:41;5.40;;;4.90;;
3543;SDS011;1786;52.870;9.578;2023-04-06T04:42:08;5.03;;;4.63;;
3543;SDS011;1786;52.870;9.578;2023-04-06T04:44:40;5.83;;;4.97;;
3543;SDS011;1786;52.870;9.578;2023-04-06T04:47:08;8.33;;;5.17;;
3543;SDS011;1786;52.870;9.578;2023-04-06T04:49:42;8.43;;;4.93;;
3543;SDS011;1786;52.870;9.578;2023-04-06T04:52:12;4.87;;;4.47;;
3543;SDS011;1786;52.870;9.578;2023-04-06T04:54:48;5.07;;;4.67;;
3543;SDS011;1786;52.870;9.578;2023-04-06T04:57:22;5.80;;;5.30;;
3543;SDS011;1786;52.870;9.578;2023-04-06T04:59:49;7.10;;;5.57;;
3543;SDS011;1786;52.870;9.578;2023-04-06T05:02:18;9.50;;;5.60;;
3543;SDS011;1786;52.870;9.578;2023-04-06T05:04:59;4.87;;;4.57;;
3543;SDS011;1786;52.870;9.578;2023-04-06T05:07:27;6.50;;;5.13;;
3543;SDS011;1786;52.870;9.578;2023-04-06T05:09:56;5.30;;;4.80;;
3543;SDS011;1786;52.870;9.578;2023-04-06T05:12:26;5.93;;;5.43;;
3543;SDS011;1786;52.870;9.578;2023-04-06T05:15:02;5.10;;;4.63;;
3543;SDS011;1786;52.870;9.578;2023-04-06T05:17:29;5.00;;;4.60;;
3543;SDS011;1786;52.870;9.578;2023-04-06T05:19:56;5.20;;;4.80;;
3543;SDS011;1786;52.870;9.578;2023-04-06T05:22:24;6.23;;;4.30;;
3543;SDS011;1786;52.870;9.578;2023-04-06T05:25:05;5.77;;;4.63;;
3543;SDS011;1786;52.870;9.578;2023-04-06T05:27:32;5.17;;;4.70;;
3543;SDS011;1786;52.870;9.578;2023-04-06T05:30:03;4.83;;;4.47;;
3543;SDS011;1786;52.870;9.578;2023-04-06T05:32:35;6.93;;;4.23;;
3543;SDS011;1786;52.870;9.578;2023-04-06T05:35:02;4.73;;;4.10;;
3543;SDS011;1786;52.870;9.578;2023-04-06T05:37:28;4.27;;;4.07;;
3543;SDS011;1786;52.870;9.578;2023-04-06T05:39:55;4.57;;;4.27;;
3543;SDS011;1786;52.870;9.578;2023-04-06T05:42:22;4.70;;;4.30;;
3543;SDS011;1786;52.870;9.578;2023-04-06T05:44:56;4.33;;;4.03;;
3543;SDS011;1786;52.870;9.578;2023-04-06T05:47:22;4.50;;;4.30;;
3543;SDS011;1786;52.870;9.578;2023-04-06T05:50:01;4.70;;;4.17;;
3543;SDS011;1786;52.870;9.578;2023-04-06T05:52:34;3.93;;;3.60;;
3543;SDS011;1786;52.870;9.578;2023-04-06T05:55:02;5.30;;;4.80;;
3543;SDS011;1786;52.870;9.578;2023-04-06T05:57:29;6.23;;;4.20;;
3543;SDS011;1786;52.870;9.578;2023-04-06T05:59:56;7.53;;;4.00;;
3543;SDS011;1786;52.870;9.578;2023-04-06T06:02:27;10.23;;;4.73;;
3543;SDS011;1786;52.870;9.578;2023-04-06T06:04:54;6.20;;;4.20;;
3543;SDS011;1786;52.870;9.578;2023-04-06T06:07:23;5.27;;;4.37;;
3543;SDS011;1786;52.870;9.578;2023-04-06T06:09:57;4.33;;;4.00;;
3543;SDS011;1786;52.870;9.578;2023-04-06T06:12:29;4.50;;;4.20;;
3543;SDS011;1786;52.870;9.578;2023-04-06T06:14:57;4.73;;;4.30;;
3543;SDS011;1786;52.870;9.578;2023-04-06T06:17:26;4.63;;;4.20;;
3543;SDS011;1786;52.870;9.578;2023-04-06T06:19:52;6.03;;;4.03;;
3543;SDS011;1786;52.870;9.578;2023-04-06T06:22:19;4.93;;;4.43;;
3543;SDS011;1786;52.870;9.578;2023-04-06T06:24:46;5.70;;;4.00;;
3543;SDS011;1786;52.870;9.578;2023-04-06T06:27:15;12.13;;;4.67;;
3543;SDS011;1786;52.870;9.578;2023-04-06T06:29:41;7.17;;;4.17;;
3543;SDS011;1786;52.870;9.578;2023-04-06T06:32:09;4.30;;;3.67;;
3543;SDS011;1786;52.870;9.578;2023-04-06T06:34:37;4.80;;;4.27;;
3543;SDS011;1786;52.870;9.578;2023-04-06T06:37:06;4.90;;;4.50;;
3543;SDS011;1786;52.870;9.578;2023-04-06T06:39:35;5.67;;;4.00;;
3543;SDS011;1786;52.870;9.578;2023-04-06T06:42:02;5.43;;;4.77;;
3543;SDS011;1786;52.870;9.578;2023-04-06T06:44:44;4.30;;;4.00;;
3543;SDS011;1786;52.870;9.578;2023-04-06T06:47:11;4.40;;;4.00;;
3543;SDS011;1786;52.870;9.578;2023-04-06T06:49:37;4.50;;;4.10;;
3543;SDS011;1786;52.870;9.578;2023-04-06T06:52:04;6.00;;;4.37;;
3543;SDS011;1786;52.870;9.578;2023-04-06T06:54:31;4.93;;;4.13;;
3543;SDS011;1786;52.870;9.578;2023-04-06T06:56:57;4.70;;;4.30;;
3543;SDS011;1786;52.870;9.578;2023-04-06T06:59:24;6.30;;;4.33;;
3543;SDS011;1786;52.870;9.578;2023-04-06T07:01:52;4.50;;;4.00;;
3543;SDS011;1786;52.870;9.578;2023-04-06T07:04:19;6.33;;;4.40;;
3543;SDS011;1786;52.870;9.578;2023-04-06T07:06:46;5.87;;;4.43;;
3543;SDS011;1786;52.870;9.578;2023-04-06T07:09:13;4.63;;;4.23;;
3543;SDS011;1786;52.870;9.578;2023-04-06T07:11:39;4.47;;;4.17;;
3543;SDS011;1786;52.870;9.578;2023-04-06T07:14:06;26.00;;;5.80;;
3543;SDS011;1786;52.870;9.578;2023-04-06T07:16:33;4.50;;;4.10;;
3543;SDS011;1786;52.870;9.578;2023-04-06T07:19:00;15.77;;;5.90;;
3543;SDS011;1786;52.870;9.578;2023-04-06T07:21:27;11.90;;;5.07;;
3543;SDS011;1786;52.870;9.578;2023-04-06T07:23:54;7.37;;;4.57;;
3543;SDS011;1786;52.870;9.578;2023-04-06T07:26:21;5.40;;;4.93;;
3543;SDS011;1786;52.870;9.578;2023-04-06T07:28:47;7.23;;;4.47;;
3543;SDS011;1786;52.870;9.578;2023-04-06T07:31:14;5.17;;;4.77;;
3543;SDS011;1786;52.870;9.578;2023-04-06T07:33:40;4.83;;;4.40;;
3543;SDS011;1786;52.870;9.578;2023-04-06T07:36:07;6.03;;;4.43;;
3543;SDS011;1786;52.870;9.578;2023-04-06T07:38:33;4.93;;;4.43;;
3543;SDS011;1786;52.870;9.578;2023-04-06T07:41:00;5.10;;;4.17;;
3543;SDS011;1786;52.870;9.578;2023-04-06T07:43:30;6.03;;;4.63;;
3543;SDS011;1786;52.870;9.578;2023-04-06T07:45:57;7.17;;;4.30;;
3543;SDS011;1786;52.870;9.578;2023-04-06T07:48:23;5.03;;;4.57;;
3543;SDS011;1786;52.870;9.578;2023-04-06T07:50:50;5.37;;;4.87;;
3543;SDS011;1786;52.870;9.578;2023-04-06T07:53:17;5.87;;;4.83;;
3543;SDS011;1786;52.870;9.578;2023-04-06T07:55:45;4.57;;;4.13;;
3543;SDS011;1786;52.870;9.578;2023-04-06T07:58:11;9.23;;;4.50;;
3543;SDS011;1786;52.870;9.578;2023-04-06T08:00:38;4.80;;;4.37;;
3543;SDS011;1786;52.870;9.578;2023-04-06T08:03:04;5.97;;;4.60;;
3543;SDS011;1786;52.870;9.578;2023-04-06T08:05:31;5.63;;;5.10;;
3543;SDS011;1786;52.870;9.578;2023-04-06T08:07:57;4.90;;;4.50;;
3543;SDS011;1786;52.870;9.578;2023-04-06T08:10:24;7.13;;;5.20;;
3543;SDS011;1786;52.870;9.578;2023-04-06T08:12:51;5.00;;;4.60;;
3543;SDS011;1786;52.870;9.578;2023-04-06T08:15:18;9.73;;;4.50;;
3543;SDS011;1786;52.870;9.578;2023-04-06T08:17:44;4.87;;;4.40;;
3543;SDS011;1786;52.870;9.578;2023-04-06T08:20:11;5.17;;;4.77;;
3543;SDS011;1786;52.870;9.578;2023-04-06T08:22:37;5.40;;;4.73;;
3543;SDS011;1786;52.870;9.578;2023-04-06T08:25:04;5.93;;;4.57;;
3543;SDS011;1786;52.870;9.578;2023-04-06T08:27:31;6.93;;;4.80;;
3543;SDS011;1786;52.870;9.578;2023-04-06T08:29:57;7.80;;;5.00;;
3543;SDS011;1786;52.870;9.578;2023-04-06T08:32:24;4.97;;;4.57;;
3543;SDS011;1786;52.870;9.578;2023-04-06T08:34:55;8.03;;;5.23;;
3543;SDS011;1786;52.870;9.578;2023-04-06T08:37:22;8.13;;;4.63;;
3543;SDS011;1786;52.870;9.578;2023-04-06T08:39:49;5.07;;;4.63;;
3543;SDS011;1786;52.870;9.578;2023-04-06T08:42:21;5.47;;;4.97;;
3543;SDS011;1786;52.870;9.578;2023-04-06T08:44:51;5.50;;;5.07;;
3543;SDS011;1786;52.870;9.578;2023-04-06T08:47:18;7.83;;;5.30;;
3543;SDS011;1786;52.870;9.578;2023-04-06T08:49:50;5.80;;;5.40;;
3543;SDS011;1786;52.870;9.578;2023-04-06T08:52:19;5.87;;;4.90;;
3543;SDS011;1786;52.870;9.578;2023-04-06T08:54:46;5.30;;;4.70;;
3543;SDS011;1786;52.870;9.578;2023-04-06T08:57:13;5.40;;;4.60;;
3543;SDS011;1786;52.870;9.578;2023-04-06T08:59:40;5.17;;;4.70;;
3543;SDS011;1786;52.870;9.578;2023-04-06T09:02:07;5.37;;;4.87;;
3543;SDS011;1786;52.870;9.578;2023-04-06T09:04:41;5.50;;;5.00;;
3543;SDS011;1786;52.870;9.578;2023-04-06T09:07:08;5.63;;;4.50;;
3543;SDS011;1786;52.870;9.578;2023-04-06T09:09:35;7.90;;;4.70;;
3543;SDS011;1786;52.870;9.578;2023-04-06T09:12:02;5.27;;;4.77;;
3543;SDS011;1786;52.870;9.578;2023-04-06T09:17:02;5.60;;;5.20;;
3543;SDS011;1786;52.870;9.578;2023-04-06T09:19:28;5.27;;;4.87;;
3543;SDS011;1786;52.870;9.578;2023-04-06T09:22:04;5.90;;;5.20;;
3543;SDS011;1786;52.870;9.578;2023-04-06T09:24:44;5.93;;;5.43;;
3543;SDS011;1786;52.870;9.578;2023-04-06T09:27:10;7.87;;;4.90;;
3543;SDS011;1786;52.870;9.578;2023-04-06T09:29:37;6.00;;;4.83;;
3543;SDS011;1786;52.870;9.578;2023-04-06T09:32:04;6.13;;;5.43;;
3543;SDS011;1786;52.870;9.578;2023-04-06T09:34:32;5.77;;;5.27;;
3543;SDS011;1786;52.870;9.578;2023-04-06T09:36:59;5.80;;;5.30;;
3543;SDS011;1786;52.870;9.578;2023-04-06T09:39:25;6.77;;;5.90;;
3543;SDS011;1786;52.870;9.578;2023-04-06T09:41:53;7.57;;;5.27;;
3543;SDS011;1786;52.870;9.578;2023-04-06T09:44:23;6.10;;;5.50;;
3543;SDS011;1786;52.870;9.578;2023-04-06T09:46:50;7.17;;;5.80;;
3543;SDS011;1786;52.870;9.578;2023-04-06T09:49:30;7.03;;;5.30;;
3543;SDS011;1786;52.870;9.578;2023-04-06T09:51:59;6.00;;;5.50;;
3543;SDS011;1786;52.870;9.578;2023-04-06T09:54:28;6.53;;;5.93;;
3543;SDS011;1786;52.870;9.578;2023-04-06T09:56:56;7.00;;;5.90;;
3543;SDS011;1786;52.870;9.578;2023-04-06T09:59:42;6.23;;;5.70;;
3543;SDS011;1786;52.870;9.578;2023-04-06T10:02:14;6.67;;;6.07;;
3543;SDS011;1786;52.870;9.578;2023-04-06T10:04:53;7.03;;;6.33;;
3543;SDS011;1786;52.870;9.578;2023-04-06T10:07:22;5.77;;;5.27;;
3543;SDS011;1786;52.870;9.578;2023-04-06T10:09:48;10.70;;;6.30;;
3543;SDS011;1786;52.870;9.578;2023-04-06T10:12:15;8.80;;;5.93;;
3543;SDS011;1786;52.870;9.578;2023-04-06T10:14:42;8.97;;;6.27;;
3543;SDS011;1786;52.870;9.578;2023-04-06T10:17:09;9.00;;;5.93;;
3543;SDS011;1786;52.870;9.578;2023-04-06T10:19:41;6.37;;;5.57;;
3543;SDS011;1786;52.870;9.578;2023-04-06T10:22:09;15.13;;;7.03;;
3543;SDS011;1786;52.870;9.578;2023-04-06T10:24:38;6.50;;;5.90;;
3543;SDS011;1786;52.870;9.578;2023-04-06T10:27:05;8.70;;;6.90;;
3543;SDS011;1786;52.870;9.578;2023-04-06T10:29:45;7.37;;;6.37;;
3543;SDS011;1786;52.870;9.578;2023-04-06T10:32:12;11.53;;;6.73;;
3543;SDS011;1786;52.870;9.578;2023-04-06T10:34:38;11.10;;;7.70;;
3543;SDS011;1786;52.870;9.578;2023-04-06T10:37:15;8.23;;;6.97;;
3543;SDS011;1786;52.870;9.578;2023-04-06T10:39:51;11.43;;;6.57;;
3543;SDS011;1786;52.870;9.578;2023-04-06T10:42:24;7.43;;;6.53;;
3543;SDS011;1786;52.870;9.578;2023-04-06T10:44:51;8.20;;;6.87;;
3543;SDS011;1786;52.870;9.578;2023-04-06T10:47:18;10.43;;;7.07;;
3543;SDS011;1786;52.870;9.578;2023-04-06T10:49:46;7.43;;;6.73;;
3543;SDS011;1786;52.870;9.578;2023-04-06T10:52:12;9.37;;;7.77;;
3543;SDS011;1786;52.870;9.578;2023-04-06T10:54:41;9.03;;;6.53;;
3543;SDS011;1786;52.870;9.578;2023-04-06T10:57:08;7.50;;;6.37;;
3543;SDS011;1786;52.870;9.578;2023-04-06T10:59:35;9.60;;;7.43;;
3543;SDS011;1786;52.870;9.578;2023-04-06T11:02:02;7.83;;;7.03;;
3543;SDS011;1786;52.870;9.578;2023-04-06T11:04:28;10.40;;;7.23;;
3543;SDS011;1786;52.870;9.578;2023-04-06T11:06:55;7.37;;;6.73;;
3543;SDS011;1786;52.870;9.578;2023-04-06T11:09:23;7.90;;;6.50;;
3543;SDS011;1786;52.870;9.578;2023-04-06T11:11:49;8.13;;;6.67;;
3543;SDS011;1786;52.870;9.578;2023-04-06T11:14:15;9.20;;;8.30;;
3543;SDS011;1786;52.870;9.578;2023-04-06T11:16:42;10.50;;;7.20;;
3543;SDS011;1786;52.870;9.578;2023-04-06T11:19:09;6.70;;;6.10;;
3543;SDS011;1786;52.870;9.578;2023-04-06T11:24:13;7.70;;;6.97;;
3543;SDS011;1786;52.870;9.578;2023-04-06T11:29:07;8.60;;;7.70;;
3543;SDS011;1786;52.870;9.578;2023-04-06T11:31:38;9.23;;;7.53;;
3543;SDS011;1786;52.870;9.578;2023-04-06T11:34:11;11.23;;;7.83;;
3543;SDS011;1786;52.870;9.578;2023-04-06T11:36:41;8.43;;;7.47;;
3543;SDS011;1786;52.870;9.578;2023-04-06T11:39:08;9.73;;;7.10;;
3543;SDS011;1786;52.870;9.578;2023-04-06T11:41:35;8.60;;;6.57;;
3543;SDS011;1786;52.870;9.578;2023-04-06T11:44:02;7.57;;;6.03;;
3543;SDS011;1786;52.870;9.578;2023-04-06T11:46:31;9.53;;;6.63;;
3543;SDS011;1786;52.870;9.578;2023-04-06T11:48:58;10.60;;;7.27;;
3543;SDS011;1786;52.870;9.578;2023-04-06T11:51:26;11.47;;;6.10;;
3543;SDS011;1786;52.870;9.578;2023-04-06T11:53:53;7.97;;;6.97;;
3543;SDS011;1786;52.870;9.578;2023-04-06T11:56:24;7.97;;;6.57;;
3543;SDS011;1786;52.870;9.578;2023-04-06T11:58:51;8.07;;;7.27;;
3543;SDS011;1786;52.870;9.578;2023-04-06T12:01:18;9.97;;;7.60;;
3543;SDS011;1786;52.870;9.578;2023-04-06T12:03:44;8.50;;;6.40;;
3543;SDS011;1786;52.870;9.578;2023-04-06T12:06:12;7.57;;;6.67;;
3543;SDS011;1786;52.870;9.578;2023-04-06T12:08:38;8.20;;;6.43;;
3543;SDS011;1786;52.870;9.578;2023-04-06T12:11:05;7.13;;;6.40;;
3543;SDS011;1786;52.870;9.578;2023-04-06T12:13:31;8.97;;;7.20;;
3543;SDS011;1786;52.870;9.578;2023-04-06T12:15:58;11.03;;;7.00;;
3543;SDS011;1786;52.870;9.578;2023-04-06T12:18:25;7.67;;;6.90;;
3543;SDS011;1786;52.870;9.578;2023-04-06T12:20:52;7.57;;;6.87;;
3543;SDS011;1786;52.870;9.578;2023-04-06T12:23:18;6.93;;;6.33;;
3543;SDS011;1786;52.870;9.578;2023-04-06T12:25:45;8.73;;;6.60;;
3543;SDS011;1786;52.870;9.578;2023-04-06T12:28:12;8.57;;;7.07;;
3543;SDS011;1786;52.870;9.578;2023-04-06T12:30:38;10.97;;;6.23;;
3543;SDS011;1786;52.870;9.578;2023-04-06T12:33:07;7.00;;;6.30;;
3543;SDS011;1786;52.870;9.578;2023-04-06T12:35:34;6.90;;;6.20;;
3543;SDS011;1786;52.870;9.578;2023-04-06T12:38:01;8.03;;;6.57;;
3543;SDS011;1786;52.870;9.578;2023-04-06T12:40:28;10.20;;;6.20;;
3543;SDS011;1786;52.870;9.578;2023-04-06T12:42:54;6.50;;;5.87;;
3543;SDS011;1786;52.870;9.578;2023-04-06T12:45:21;8.03;;;5.83;;
3543;SDS011;1786;52.870;9.578;2023-04-06T12:47:47;11.53;;;6.23;;
3543;SDS011;1786;52.870;9.578;2023-04-06T12:50:14;9.93;;;7.30;;
3543;SDS011;1786;52.870;9.578;2023-04-06T12:52:41;7.23;;;6.57;;
3543;SDS011;1786;52.870;9.578;2023-04-06T12:55:07;7.63;;;6.87;;
3543;SDS011;1786;52.870;9.578;2023-04-06T12:57:34;10.80;;;6.87;;
3543;SDS011;1786;52.870;9.578;2023-04-06T13:00:01;6.27;;;5.67;;
3543;SDS011;1786;52.870;9.578;2023-04-06T13:02:29;7.90;;;6.77;;
3543;SDS011;1786;52.870;9.578;2023-04-06T13:04:56;9.00;;;6.20;;
3543;SDS011;1786;52.870;9.578;2023-04-06T13:07:23;6.63;;;6.03;;
3543;SDS011;1786;52.870;9.578;2023-04-06T13:09:49;7.13;;;5.50;;
3543;SDS011;1786;52.870;9.578;2023-04-06T13:12:15;7.03;;;6.40;;
3543;SDS011;1786;52.870;9.578;2023-04-06T13:14:42;6.57;;;5.93;;
3543;SDS011;1786;52.870;9.578;2023-04-06T13:17:08;6.73;;;5.30;;
3543;SDS011;1786;52.870;9.578;2023-04-06T13:19:35;6.37;;;5.87;;
3543;SDS011;1786;52.870;9.578;2023-04-06T13:22:02;7.27;;;6.67;;
3543;SDS011;1786;52.870;9.578;2023-04-06T13:24:28;9.90;;;7.67;;
3543;SDS011;1786;52.870;9.578;2023-04-06T13:26:55;7.90;;;7.00;;
3543;SDS011;1786;52.870;9.578;2023-04-06T13:29:22;7.20;;;5.50;;
3543;SDS011;1786;52.870;9.578;2023-04-06T13:31:48;13.60;;;7.23;;
3543;SDS011;1786;52.870;9.578;2023-04-06T13:34:14;6.97;;;6.27;;
3543;SDS011;1786;52.870;9.578;2023-04-06T13:36:41;8.03;;;7.20;;
3543;SDS011;1786;52.870;9.578;2023-04-06T13:39:09;9.63;;;6.53;;
3543;SDS011;1786;52.870;9.578;2023-04-06T13:41:35;6.80;;;6.20;;
3543;SDS011;1786;52.870;9.578;2023-04-06T13:44:02;9.63;;;7.00;;
3543;SDS011;1786;52.870;9.578;2023-04-06T13:46:29;8.50;;;7.17;;
3543;SDS011;1786;52.870;9.578;2023-04-06T13:48:55;7.50;;;6.70;;
3543;SDS011;1786;52.870;9.578;2023-04-06T13:51:22;8.83;;;7.87;;
3543;SDS011;1786;52.870;9.578;2023-04-06T13:53:48;6.77;;;6.13;;
3543;SDS011;1786;52.870;9.578;2023-04-06T13:56:18;8.60;;;7.53;;
3543;SDS011;1786;52.870;9.578;2023-04-06T13:58:45;11.73;;;6.70;;
3543;SDS011;1786;52.870;9.578;2023-04-06T14:01:12;8.53;;;7.63;;
3543;SDS011;1786;52.870;9.578;2023-04-06T14:03:38;9.60;;;7.30;;
3543;SDS011;1786;52.870;9.578;2023-04-06T14:06:12;8.17;;;7.37;;
3543;SDS011;1786;52.870;9.578;2023-04-06T14:08:57;7.37;;;6.67;;
3543;SDS011;1786;52.870;9.578;2023-04-06T14:11:23;7.70;;;6.93;;
3543;SDS011;1786;52.870;9.578;2023-04-06T14:13:50;8.00;;;7.20;;
3543;SDS011;1786;52.870;9.578;2023-04-06T14:16:17;9.20;;;7.53;;
3543;SDS011;1786;52.870;9.578;2023-04-06T14:18:45;12.20;;;7.73;;
3543;SDS011;1786;52.870;9.578;2023-04-06T14:21:12;7.60;;;6.80;;
3543;SDS011;1786;52.870;9.578;2023-04-06T14:23:39;8.37;;;7.07;;
3543;SDS011;1786;52.870;9.578;2023-04-06T14:26:06;11.10;;;7.27;;
3543;SDS011;1786;52.870;9.578;2023-04-06T14:28:33;12.00;;;8.27;;
3543;SDS011;1786;52.870;9.578;2023-04-06T14:31:01;9.37;;;7.80;;
3543;SDS011;1786;52.870;9.578;2023-04-06T14:33:29;7.50;;;6.40;;
3543;SDS011;1786;52.870;9.578;2023-04-06T14:35:56;9.97;;;8.40;;
3543;SDS011;1786;52.870;9.578;2023-04-06T14:38:22;11.13;;;7.77;;
3543;SDS011;1786;52.870;9.578;2023-04-06T14:40:49;8.33;;;7.47;;
3543;SDS011;1786;52.870;9.578;2023-04-06T14:43:16;8.83;;;7.53;;
3543;SDS011;1786;52.870;9.578;2023-04-06T14:45:43;11.03;;;7.27;;
3543;SDS011;1786;52.870;9.578;2023-04-06T14:48:10;9.33;;;8.33;;
3543;SDS011;1786;52.870;9.578;2023-04-06T14:50:38;7.13;;;6.43;;
3543;SDS011;1786;52.870;9.578;2023-04-06T14:53:05;9.83;;;6.40;;
3543;SDS011;1786;52.870;9.578;2023-04-06T14:55:32;11.60;;;7.60;;
3543;SDS011;1786;52.870;9.578;2023-04-06T14:57:58;9.33;;;6.73;;
3543;SDS011;1786;52.870;9.578;2023-04-06T15:00:25;9.17;;;7.00;;
3543;SDS011;1786;52.870;9.578;2023-04-06T15:02:52;10.70;;;7.43;;
3543;SDS011;1786;52.870;9.578;2023-04-06T15:05:18;11.40;;;7.33;;
3543;SDS011;1786;52.870;9.578;2023-04-06T15:07:45;7.47;;;6.73;;
3543;SDS011;1786;52.870;9.578;2023-04-06T15:10:11;11.23;;;6.43;;
3543;SDS011;1786;52.870;9.578;2023-04-06T15:12:38;8.40;;;7.30;;
3543;SDS011;1786;52.870;9.578;2023-04-06T15:15:04;9.20;;;7.00;;
3543;SDS011;1786;52.870;9.578;2023-04-06T15:17:31;8.07;;;7.23;;
3543;SDS011;1786;52.870;9.578;2023-04-06T15:19:58;15.90;;;6.67;;
3543;SDS011;1786;52.870;9.578;2023-04-06T15:22:24;7.30;;;6.60;;
3543;SDS011;1786;52.870;9.578;2023-04-06T15:24:51;7.93;;;6.20;;
3543;SDS011;1786;52.870;9.578;2023-04-06T15:27:17;6.67;;;6.07;;
3543;SDS011;1786;52.870;9.578;2023-04-06T15:29:44;10.97;;;6.97;;